KIND Airport Diagram

We have created a template for each of the higher traffic airports in the vZID airspace. They include KCMH, KCRW, KCVG, KDAY, KIND, KLEX and KSDF. You wil find usefull information including the airport diagram, weather, and specific airport procedures.

KIND Weather

[Source: ADDS]
METAR
KIND 190754Z 16004KT 9SM BKN008 OVC220 02/01 A3010 RMK AO2 SLP197 T00220006 =
TAF
KIND 190818Z 1908/2012 VRB03KT 6SM BR BKN008 FM191100 VRB03KT 4SM BR BKN250 FM191400 12004KT P6SM BKN080 FM191900 12005KT P6SM VCSH OVC050 FM192100 11006KT 4SM -RA OVC035 FM200000 11007KT 1SM RA OVC008 FM200700 14006KT 1SM RA OVC003 FM201100 20006KT 3SM RA BR OVC008 =

KIND Operations

Calm Wind Configuration is runways 23L and 23R

Runway 23L typically departs south and east

Runway 23R typicall departs north and west

New Scenery is available at FlightSim.com and Blueprint Simulations. On initial contact, arriving aircraft should notify the the controller which scenery they have.

FedEx pilots should expect runway 23L or 5R.

 

JSN Epic template designed by JoomlaShine.com